createdAt,value
2023-01-29T00:00:10.092Z,16.67
2023-01-29T00:02:40.036Z,15.95
2023-01-29T00:05:25.951Z,16.02
2023-01-29T00:07:54.675Z,16.63
2023-01-29T00:10:22.623Z,16.20
2023-01-29T00:12:50.104Z,15.32
2023-01-29T00:15:18.518Z,16.85
2023-01-29T00:17:45.816Z,16.23
2023-01-29T00:20:14.728Z,15.65
2023-01-29T00:22:42.080Z,17.27
2023-01-29T00:25:10.219Z,17.33
2023-01-29T00:27:37.448Z,14.23
2023-01-29T00:30:11.987Z,15.98
2023-01-29T00:32:42.679Z,14.80
2023-01-29T00:35:10.614Z,16.05
2023-01-29T00:37:38.283Z,14.55
2023-01-29T00:40:06.620Z,14.80
2023-01-29T00:42:52.580Z,15.23
2023-01-29T00:45:19.803Z,15.07
2023-01-29T00:47:47.133Z,15.35
2023-01-29T00:50:14.707Z,15.07
2023-01-29T00:52:42.175Z,14.10
2023-01-29T00:55:11.475Z,15.93
2023-01-29T00:57:39.159Z,15.75
2023-01-29T01:00:12.542Z,17.50
2023-01-29T01:02:58.693Z,13.57
2023-01-29T01:05:27.323Z,15.40
2023-01-29T01:07:57.960Z,14.73
2023-01-29T01:10:33.681Z,14.73
2023-01-29T01:13:05.779Z,14.80
2023-01-29T01:15:40.048Z,17.38
2023-01-29T01:18:07.555Z,15.07
2023-01-29T01:20:36.165Z,14.23
2023-01-29T01:23:04.000Z,13.43
2023-01-29T01:25:31.193Z,15.05
2023-01-29T01:30:27.837Z,15.30
2023-01-29T01:32:56.068Z,13.73
2023-01-29T01:35:23.402Z,15.63
2023-01-29T01:37:50.762Z,15.57
2023-01-29T01:40:22.699Z,13.60
2023-01-29T01:42:57.828Z,13.90
2023-01-29T01:45:36.087Z,14.10
2023-01-29T01:48:17.815Z,14.10
2023-01-29T01:50:58.807Z,13.80
2023-01-29T01:53:41.364Z,14.32
2023-01-29T01:56:26.603Z,14.38
2023-01-29T01:58:59.118Z,14.25
2023-01-29T02:01:30.689Z,13.95
2023-01-29T02:04:24.941Z,12.38
2023-01-29T02:07:12.450Z,14.98
2023-01-29T02:12:17.163Z,12.30
2023-01-29T02:14:45.001Z,16.00
2023-01-29T02:17:19.602Z,14.35
2023-01-29T02:20:14.522Z,14.07
2023-01-29T02:23:36.103Z,14.00
2023-01-29T02:26:20.906Z,13.73
2023-01-29T02:29:27.136Z,12.43
2023-01-29T02:32:23.296Z,12.82
2023-01-29T02:35:34.656Z,12.85
2023-01-29T02:38:30.906Z,12.52
2023-01-29T02:41:45.374Z,12.70
2023-01-29T02:44:29.224Z,13.30
2023-01-29T02:47:24.142Z,13.45
2023-01-29T02:50:05.469Z,12.90
2023-01-29T02:52:58.717Z,13.18
2023-01-29T02:55:52.940Z,13.70
2023-01-29T02:58:34.923Z,14.10
2023-01-29T03:01:36.262Z,13.43
2023-01-29T03:04:16.677Z,13.85
2023-01-29T03:06:55.072Z,13.35
2023-01-29T03:09:35.013Z,13.15
2023-01-29T03:12:33.988Z,14.02
2023-01-29T03:15:19.059Z,13.23
2023-01-29T03:18:16.738Z,14.23
2023-01-29T03:20:54.150Z,13.50
2023-01-29T03:23:51.061Z,13.75
2023-01-29T03:26:41.352Z,12.25
2023-01-29T03:29:28.429Z,14.23
2023-01-29T03:32:09.433Z,14.02
2023-01-29T03:34:52.015Z,12.60
2023-01-29T03:37:31.235Z,14.70
2023-01-29T03:39:58.971Z,13.15
2023-01-29T03:43:16.141Z,14.95
2023-01-29T03:46:14.315Z,13.77
2023-01-29T03:49:21.519Z,12.85
2023-01-29T03:52:08.186Z,12.43
2023-01-29T03:54:48.632Z,12.93
2023-01-29T03:57:36.860Z,13.52
2023-01-29T04:00:22.709Z,13.77
2023-01-29T04:03:26.682Z,12.38
2023-01-29T04:06:31.850Z,13.02
2023-01-29T04:09:28.049Z,13.75
2023-01-29T04:12:11.088Z,12.63
2023-01-29T04:14:42.112Z,13.60
2023-01-29T04:17:23.738Z,12.48
2023-01-29T04:20:01.593Z,13.05
2023-01-29T04:22:38.196Z,11.35
2023-01-29T04:25:16.143Z,12.23
2023-01-29T04:28:13.745Z,13.20
2023-01-29T04:30:58.155Z,12.40
2023-01-29T04:34:03.182Z,13.18
2023-01-29T04:37:40.354Z,12.35
2023-01-29T04:40:48.244Z,11.48
2023-01-29T04:43:36.709Z,10.80
2023-01-29T04:46:56.963Z,13.07
2023-01-29T04:50:04.319Z,12.55
2023-01-29T04:52:49.215Z,13.25
2023-01-29T04:55:45.489Z,13.48
2023-01-29T04:58:59.511Z,12.98
2023-01-29T05:01:30.572Z,12.57
2023-01-29T05:04:02.447Z,12.77
2023-01-29T05:06:32.736Z,12.10
2023-01-29T05:09:01.897Z,11.98
2023-01-29T05:11:33.058Z,11.98
2023-01-29T05:14:07.066Z,12.98
2023-01-29T05:16:43.542Z,13.13
2023-01-29T05:19:16.174Z,13.65
2023-01-29T05:21:48.080Z,12.50
2023-01-29T05:24:25.387Z,15.23
2023-01-29T05:27:13.422Z,13.20
2023-01-29T05:29:47.422Z,14.55
2023-01-29T05:32:15.999Z,13.15
2023-01-29T05:34:43.311Z,13.50
2023-01-29T05:37:11.175Z,12.73
2023-01-29T05:39:38.346Z,12.77
2023-01-29T05:42:05.593Z,13.25
2023-01-29T05:44:32.796Z,14.50
2023-01-29T05:47:02.596Z,13.27
2023-01-29T05:49:29.932Z,14.27
2023-01-29T05:51:57.154Z,12.50
2023-01-29T05:54:24.384Z,14.32
2023-01-29T05:56:51.623Z,12.18
2023-01-29T05:59:19.010Z,13.80
2023-01-29T06:01:46.354Z,11.70
2023-01-29T06:04:13.609Z,12.05
2023-01-29T06:06:40.881Z,13.80
2023-01-29T06:09:12.251Z,13.05
2023-01-29T06:11:40.097Z,13.52
2023-01-29T06:14:07.682Z,14.45
2023-01-29T06:16:35.451Z,13.43
2023-01-29T06:19:02.960Z,15.50
2023-01-29T06:21:30.176Z,17.10
2023-01-29T06:23:57.443Z,13.15
2023-01-29T06:26:24.902Z,13.45
2023-01-29T06:28:52.190Z,14.15
2023-01-29T06:31:36.960Z,12.98
2023-01-29T06:34:05.020Z,15.43
2023-01-29T06:36:32.385Z,22.70
2023-01-29T06:38:59.803Z,17.17
2023-01-29T06:41:27.255Z,15.73
2023-01-29T06:43:55.743Z,14.60
2023-01-29T06:46:23.110Z,15.18
2023-01-29T06:48:50.446Z,14.30
2023-01-29T06:51:17.977Z,15.52
2023-01-29T06:53:46.406Z,12.20
2023-01-29T06:56:14.030Z,14.65
2023-01-29T06:58:44.634Z,15.00
2023-01-29T07:01:25.383Z,14.10
2023-01-29T07:04:02.965Z,14.73
2023-01-29T07:06:31.076Z,12.68
2023-01-29T07:08:58.718Z,12.73
2023-01-29T07:11:26.055Z,12.57
2023-01-29T07:13:55.406Z,12.80
2023-01-29T07:16:23.570Z,12.40
2023-01-29T07:18:57.060Z,13.00
2023-01-29T07:21:28.084Z,11.88
2023-01-29T07:23:55.806Z,11.77
2023-01-29T07:26:24.740Z,13.05
2023-01-29T07:31:19.581Z,13.23
2023-01-29T07:33:47.058Z,12.52
2023-01-29T07:36:15.142Z,15.23
2023-01-29T07:38:42.622Z,14.18
2023-01-29T07:41:11.838Z,14.38
2023-01-29T07:43:40.775Z,13.45
2023-01-29T07:48:39.805Z,13.27
2023-01-29T07:51:07.188Z,13.85
2023-01-29T07:53:34.633Z,14.27
2023-01-29T07:56:02.624Z,13.50
2023-01-29T07:58:29.893Z,15.17
2023-01-29T08:00:58.658Z,13.98
2023-01-29T08:03:26.053Z,15.52
2023-01-29T08:05:53.285Z,14.38
2023-01-29T08:08:20.784Z,15.30
2023-01-29T08:10:47.988Z,15.57
2023-01-29T08:13:15.361Z,13.38
2023-01-29T08:15:46.226Z,13.40
2023-01-29T08:18:16.846Z,13.57
2023-01-29T08:20:44.088Z,15.38
2023-01-29T08:23:16.589Z,13.13
2023-01-29T08:25:44.292Z,14.20
2023-01-29T08:28:12.377Z,15.07
2023-01-29T08:30:40.008Z,13.70
2023-01-29T08:33:08.664Z,15.05
2023-01-29T08:35:47.652Z,14.00
2023-01-29T08:38:14.976Z,13.85
2023-01-29T08:40:42.295Z,12.32
2023-01-29T08:43:13.640Z,14.07
2023-01-29T08:45:44.046Z,14.77
2023-01-29T08:48:11.834Z,14.98
2023-01-29T08:50:39.383Z,13.95
2023-01-29T08:53:08.993Z,12.57
2023-01-29T08:55:41.014Z,12.88
2023-01-29T08:58:11.448Z,12.32
2023-01-29T09:00:41.056Z,10.30
2023-01-29T09:03:08.516Z,12.68
2023-01-29T09:05:38.904Z,11.18
2023-01-29T09:08:08.877Z,11.90
2023-01-29T09:10:36.811Z,18.90
2023-01-29T09:13:07.880Z,14.07
2023-01-29T09:15:35.292Z,14.63
2023-01-29T09:18:06.135Z,12.23
2023-01-29T09:20:34.020Z,12.52
2023-01-29T09:23:09.751Z,12.85
2023-01-29T09:25:37.925Z,12.27
2023-01-29T09:28:06.250Z,11.65
2023-01-29T09:30:34.640Z,14.40
2023-01-29T09:33:02.013Z,13.35
2023-01-29T09:35:29.460Z,11.85
2023-01-29T09:37:56.927Z,13.68
2023-01-29T09:41:03.671Z,12.63
2023-01-29T09:43:54.737Z,13.25
2023-01-29T09:46:45.227Z,12.13
2023-01-29T09:49:34.203Z,12.73
2023-01-29T09:52:33.307Z,13.50
2023-01-29T09:55:35.359Z,12.18
2023-01-29T09:58:22.287Z,11.00
2023-01-29T10:01:38.702Z,14.48
2023-01-29T10:04:45.837Z,12.55
2023-01-29T10:08:01.480Z,12.13
2023-01-29T10:11:26.336Z,12.90
2023-01-29T10:14:17.097Z,11.38
2023-01-29T10:17:34.665Z,12.30
2023-01-29T10:20:34.566Z,13.73
2023-01-29T10:23:34.391Z,12.45
2023-01-29T10:26:02.701Z,12.55
2023-01-29T10:28:46.645Z,12.13
2023-01-29T10:31:33.152Z,11.52
2023-01-29T10:34:40.645Z,10.35
2023-01-29T10:37:28.213Z,13.63
2023-01-29T10:39:55.447Z,11.43
2023-01-29T10:42:41.229Z,14.25
2023-01-29T10:45:32.100Z,11.88
2023-01-29T10:48:44.945Z,19.42
2023-01-29T10:51:46.797Z,12.15
2023-01-29T10:54:51.297Z,11.60
2023-01-29T10:57:53.327Z,12.45
2023-01-29T11:00:36.507Z,11.27
2023-01-29T11:06:25.373Z,11.15
2023-01-29T11:12:18.597Z,11.88
2023-01-29T11:15:02.007Z,12.23
2023-01-29T11:17:29.554Z,15.07
2023-01-29T11:19:56.923Z,9.57
2023-01-29T11:22:28.488Z,13.25
2023-01-29T11:25:16.828Z,13.60
2023-01-29T11:27:52.948Z,12.35
2023-01-29T11:30:41.524Z,13.75
2023-01-29T11:33:23.663Z,11.15
2023-01-29T11:35:52.655Z,12.45
2023-01-29T11:38:28.678Z,11.88
2023-01-29T11:41:18.119Z,10.48
2023-01-29T11:43:45.351Z,12.85
2023-01-29T11:46:15.956Z,12.60
2023-01-29T11:48:52.006Z,13.55
2023-01-29T11:51:29.782Z,12.63
2023-01-29T11:54:04.369Z,11.57
2023-01-29T11:56:46.804Z,14.63
2023-01-29T11:59:44.026Z,13.55
2023-01-29T12:02:26.714Z,13.13
2023-01-29T12:05:07.353Z,11.85
2023-01-29T12:07:35.039Z,12.90
2023-01-29T12:10:06.192Z,13.38
2023-01-29T12:12:45.068Z,11.27
2023-01-29T12:15:25.211Z,11.02
2023-01-29T12:18:54.725Z,9.43
2023-01-29T12:22:00.780Z,11.95
2023-01-29T12:24:56.203Z,11.20
2023-01-29T12:27:34.392Z,11.13
2023-01-29T12:30:20.037Z,12.68
2023-01-29T12:33:21.931Z,13.10
2023-01-29T12:36:02.789Z,11.95
2023-01-29T12:38:30.093Z,14.75
2023-01-29T12:41:49.368Z,10.25
2023-01-29T12:44:54.756Z,14.40
2023-01-29T12:47:43.984Z,11.63
2023-01-29T12:50:37.109Z,12.40
2023-01-29T12:53:23.449Z,12.85
2023-01-29T12:56:41.429Z,13.30
2023-01-29T12:59:41.131Z,11.13
2023-01-29T13:03:04.709Z,11.27
2023-01-29T13:05:46.424Z,13.52
2023-01-29T13:08:54.075Z,13.85
2023-01-29T13:12:04.279Z,12.45
2023-01-29T13:14:59.660Z,12.93
2023-01-29T13:17:42.803Z,12.50
2023-01-29T13:20:44.866Z,9.38
2023-01-29T13:23:35.680Z,14.13
2023-01-29T13:26:03.801Z,11.95
2023-01-29T13:28:34.214Z,13.60
2023-01-29T13:31:33.224Z,13.25
2023-01-29T13:34:28.507Z,11.57
2023-01-29T13:37:01.759Z,13.32
2023-01-29T13:39:32.147Z,12.88
2023-01-29T13:42:03.265Z,14.45
2023-01-29T13:44:38.014Z,8.32
2023-01-29T13:49:46.616Z,10.80
2023-01-29T13:52:46.461Z,11.40
2023-01-29T13:55:21.233Z,9.15
2023-01-29T14:00:22.613Z,8.88
2023-01-29T14:02:55.976Z,8.40
2023-01-29T14:05:33.738Z,9.80
2023-01-29T14:08:14.065Z,9.70
2023-01-29T14:10:43.822Z,10.02
2023-01-29T14:13:19.905Z,9.98
2023-01-29T14:16:26.820Z,8.60
2023-01-29T14:19:01.322Z,7.50
2023-01-29T14:21:33.978Z,8.82
2023-01-29T14:24:20.809Z,10.00
2023-01-29T14:26:54.551Z,9.55
2023-01-29T14:29:34.943Z,10.27
2023-01-29T14:32:20.733Z,9.73
2023-01-29T14:35:01.261Z,9.73
2023-01-29T14:37:39.877Z,6.80
2023-01-29T14:40:20.559Z,9.65
2023-01-29T14:43:09.214Z,9.30
2023-01-29T14:45:41.844Z,9.63
2023-01-29T14:48:12.093Z,9.93
2023-01-29T14:50:49.038Z,9.07
2023-01-29T14:53:45.939Z,9.82
2023-01-29T14:56:24.457Z,9.73
2023-01-29T14:59:19.585Z,7.97
2023-01-29T15:01:54.964Z,9.55
2023-01-29T15:04:30.622Z,9.02
2023-01-29T15:07:17.333Z,10.25
2023-01-29T15:10:18.889Z,9.23
2023-01-29T15:13:15.585Z,9.23
2023-01-29T15:16:15.017Z,9.65
2023-01-29T15:18:44.008Z,9.63
2023-01-29T15:21:18.264Z,10.20
2023-01-29T15:23:50.598Z,9.10
2023-01-29T15:26:26.938Z,8.65
2023-01-29T15:29:03.406Z,10.80
2023-01-29T15:31:31.859Z,10.63
2023-01-29T15:34:07.963Z,11.00
2023-01-29T15:36:37.437Z,10.45
2023-01-29T15:39:25.238Z,9.80
2023-01-29T15:42:15.583Z,9.77
2023-01-29T15:44:46.636Z,10.02
2023-01-29T15:47:15.225Z,10.45
2023-01-29T15:49:42.963Z,11.18
2023-01-29T15:52:24.510Z,9.18
2023-01-29T15:54:53.071Z,10.32
2023-01-29T15:57:34.305Z,10.30
2023-01-29T16:00:03.786Z,10.65
2023-01-29T16:02:42.197Z,10.15
2023-01-29T16:05:22.867Z,11.90
2023-01-29T16:07:52.468Z,10.93
2023-01-29T16:10:30.491Z,10.82
2023-01-29T16:12:58.612Z,13.00
2023-01-29T16:15:40.159Z,12.00
2023-01-29T16:18:59.030Z,13.80
2023-01-29T16:21:38.773Z,10.75
2023-01-29T16:24:13.833Z,12.73
2023-01-29T16:26:48.020Z,12.90
2023-01-29T16:29:34.231Z,12.05
2023-01-29T16:32:02.962Z,13.18
2023-01-29T16:34:41.745Z,13.40
2023-01-29T16:37:26.504Z,12.57
2023-01-29T16:39:54.066Z,11.38
2023-01-29T16:42:27.479Z,11.65
2023-01-29T16:45:26.255Z,12.77
2023-01-29T16:48:33.706Z,13.25
2023-01-29T16:51:27.015Z,14.95
2023-01-29T16:54:23.232Z,12.45
2023-01-29T16:57:00.062Z,14.80
2023-01-29T16:59:36.674Z,15.00
2023-01-29T17:02:22.806Z,14.80
2023-01-29T17:04:54.462Z,15.27
2023-01-29T17:07:22.377Z,14.20
2023-01-29T17:09:59.949Z,14.10
2023-01-29T17:12:29.629Z,13.88
2023-01-29T17:15:31.887Z,14.80
2023-01-29T17:17:59.779Z,13.40
2023-01-29T17:20:27.890Z,14.60
2023-01-29T17:22:55.251Z,14.23
2023-01-29T17:25:23.771Z,13.38
2023-01-29T17:27:54.273Z,15.27
2023-01-29T17:30:24.031Z,17.20
2023-01-29T17:32:51.461Z,18.75
2023-01-29T17:35:21.274Z,17.90
2023-01-29T17:37:48.838Z,16.70
2023-01-29T17:40:41.327Z,17.08
2023-01-29T17:43:14.464Z,16.73
2023-01-29T17:45:41.889Z,14.82
2023-01-29T17:48:28.688Z,14.95
2023-01-29T17:51:03.395Z,15.30
2023-01-29T17:53:44.790Z,14.32
2023-01-29T17:56:33.092Z,13.73
2023-01-29T17:59:15.286Z,12.10
2023-01-29T18:01:48.067Z,15.25
2023-01-29T18:04:31.668Z,16.77
2023-01-29T18:07:03.534Z,17.02
2023-01-29T18:09:31.502Z,16.15
2023-01-29T18:12:03.907Z,16.08
2023-01-29T18:14:37.171Z,17.65
2023-01-29T18:17:12.260Z,19.30
2023-01-29T18:19:44.956Z,19.95
2023-01-29T18:22:17.146Z,18.42
2023-01-29T18:24:46.864Z,16.80
2023-01-29T18:27:17.819Z,18.20
2023-01-29T18:29:48.059Z,20.63
2023-01-29T18:32:22.777Z,17.52
2023-01-29T18:34:50.187Z,18.02
2023-01-29T18:37:25.575Z,17.67
2023-01-29T18:40:01.128Z,19.05
2023-01-29T18:42:40.964Z,17.05
2023-01-29T18:45:13.649Z,19.88
2023-01-29T18:48:04.435Z,18.45
2023-01-29T18:50:39.845Z,18.08
2023-01-29T18:53:07.875Z,17.50
2023-01-29T18:56:08.794Z,18.20
2023-01-29T18:58:51.936Z,18.92
2023-01-29T19:01:28.026Z,19.52
2023-01-29T19:04:01.002Z,20.00
2023-01-29T19:06:28.698Z,15.82
2023-01-29T19:09:18.962Z,19.50
2023-01-29T19:11:58.580Z,19.23
2023-01-29T19:14:31.565Z,19.63
2023-01-29T19:17:04.286Z,19.05
2023-01-29T19:19:35.244Z,18.20
2023-01-29T19:22:20.640Z,18.13
2023-01-29T19:26:54.995Z,18.52
2023-01-29T19:28:12.253Z,17.13
2023-01-29T19:30:39.786Z,18.10
2023-01-29T19:33:07.298Z,17.98
2023-01-29T19:35:34.516Z,19.67
2023-01-29T19:38:01.859Z,18.95
2023-01-29T19:40:29.192Z,20.15
2023-01-29T19:42:56.672Z,19.88
2023-01-29T19:45:49.071Z,20.30
2023-01-29T19:48:21.332Z,20.58
2023-01-29T19:51:00.132Z,20.95
2023-01-29T19:53:31.595Z,19.90
2023-01-29T19:56:09.447Z,22.33
2023-01-29T19:58:37.446Z,21.38
2023-01-29T20:01:19.391Z,20.75
2023-01-29T20:03:49.216Z,23.38
2023-01-29T20:06:23.609Z,20.27
2023-01-29T20:08:51.793Z,22.15
2023-01-29T20:11:22.661Z,21.00
2023-01-29T20:13:52.552Z,20.48
2023-01-29T20:16:21.068Z,21.48
2023-01-29T20:18:48.476Z,20.67
2023-01-29T20:21:22.790Z,19.63
2023-01-29T20:23:51.702Z,19.98
2023-01-29T20:28:50.200Z,18.42
2023-01-29T20:31:17.585Z,22.02
2023-01-29T20:33:45.049Z,18.90
2023-01-29T20:36:14.812Z,21.80
2023-01-29T20:38:42.241Z,21.10
2023-01-29T20:41:14.507Z,21.15
2023-01-29T20:43:43.652Z,21.33
2023-01-29T20:46:11.938Z,22.02
2023-01-29T20:48:39.472Z,21.25
2023-01-29T20:51:15.761Z,19.13
2023-01-29T20:53:47.218Z,23.02
2023-01-29T20:56:17.280Z,20.33
2023-01-29T20:58:47.410Z,22.02
2023-01-29T21:01:19.803Z,21.65
2023-01-29T21:03:48.504Z,22.35
2023-01-29T21:06:18.286Z,22.90
2023-01-29T21:08:47.884Z,20.60
2023-01-29T21:11:17.569Z,21.67
2023-01-29T21:13:46.815Z,20.65
2023-01-29T21:16:14.191Z,20.98
2023-01-29T21:18:41.508Z,20.92
2023-01-29T21:21:10.830Z,19.85
2023-01-29T21:23:41.746Z,20.10
2023-01-29T21:26:09.207Z,20.67
2023-01-29T21:28:36.614Z,19.60
2023-01-29T21:31:08.477Z,19.83
2023-01-29T21:33:36.989Z,23.65
2023-01-29T21:36:05.428Z,22.52
2023-01-29T21:38:35.700Z,23.63
2023-01-29T21:41:08.101Z,23.23
2023-01-29T21:43:36.575Z,21.20
2023-01-29T21:46:13.564Z,21.08
2023-01-29T21:48:41.457Z,20.27
2023-01-29T21:51:09.329Z,21.80
2023-01-29T21:53:37.247Z,20.38
2023-01-29T21:56:06.134Z,19.23
2023-01-29T22:01:34.708Z,18.92
2023-01-29T22:03:48.064Z,21.02
2023-01-29T22:06:15.882Z,27.17
2023-01-29T22:08:43.362Z,23.90
2023-01-29T22:11:11.390Z,24.70
2023-01-29T22:13:41.767Z,25.95
2023-01-29T22:16:09.299Z,24.13
2023-01-29T22:18:41.043Z,22.02
2023-01-29T22:21:08.548Z,20.92
2023-01-29T22:23:35.866Z,24.45
2023-01-29T22:26:06.797Z,23.38
2023-01-29T22:28:35.088Z,22.83
2023-01-29T22:31:04.930Z,21.70
2023-01-29T22:33:33.492Z,21.35
2023-01-29T22:36:01.556Z,21.02
2023-01-29T22:38:29.171Z,24.30
2023-01-29T22:40:59.848Z,31.40
2023-01-29T22:43:27.223Z,25.17
2023-01-29T22:45:56.310Z,23.77
2023-01-29T22:48:24.042Z,21.33
2023-01-29T22:51:11.948Z,19.92
2023-01-29T22:53:58.225Z,19.73
2023-01-29T22:56:29.477Z,18.17
2023-01-29T22:59:02.886Z,21.20
2023-01-29T23:01:32.613Z,24.35
2023-01-29T23:04:00.019Z,24.98
2023-01-29T23:06:27.399Z,23.58
2023-01-29T23:08:54.676Z,22.60
2023-01-29T23:11:24.945Z,19.67
2023-01-29T23:13:57.234Z,20.88
2023-01-29T23:16:28.043Z,22.10
2023-01-29T23:18:56.814Z,22.10
2023-01-29T23:21:25.370Z,24.35
2023-01-29T23:23:55.261Z,23.48
2023-01-29T23:26:41.677Z,23.75
2023-01-29T23:29:09.837Z,23.33
2023-01-29T23:31:37.535Z,22.65
2023-01-29T23:34:05.188Z,21.33
2023-01-29T23:36:32.422Z,21.40
2023-01-29T23:38:59.680Z,21.90
2023-01-29T23:41:27.008Z,22.08
2023-01-29T23:43:54.277Z,22.95
2023-01-29T23:46:21.675Z,21.08
2023-01-29T23:48:48.943Z,22.10
2023-01-29T23:51:16.279Z,23.42
2023-01-29T23:53:43.664Z,20.70
2023-01-29T23:56:11.565Z,21.50
2023-01-29T23:58:39.084Z,20.35
